Minusinsk, Russia
Current Conditions -  °F | °C
As of 11:00 AM on Saturday 25 Oct 2014 (Local Time) from UNAA Reporting Station
Broken Clouds Broken Clouds  
Wind Chill: 37°   Ceiling: 200
Heat Index: 37°   Visibility: 5mi
Dew Point: 36°   Wind: 2mph
Humidity: 93%   Direction: NA
Pressure: 30.03"   Gusts: NA
Location:  53.71°N, 91.69°E
Report Text: UNAA 250400Z VRB01MPS 8000 BKN002 03/02 Q1017 NOSIG RMK QBB070QFE740 52290055
Loading
Personal Weather Stations






























Interactive Weather Map
Tropical Storm Tracking
New forecast layout! Learn more

10-Day Weather Forecast

Advertisements
Track Severe Weather on mobile